createdAt,value
2018-06-12T00:01:32.809Z,16.33
2018-06-12T00:04:01.488Z,16.29
2018-06-12T00:06:30.291Z,16.22
2018-06-12T00:08:59.045Z,16.19
2018-06-12T00:11:27.698Z,16.14
2018-06-12T00:13:56.609Z,16.04
2018-06-12T00:16:25.078Z,15.99
2018-06-12T00:18:53.812Z,15.95
2018-06-12T00:21:23.161Z,15.94
2018-06-12T00:23:51.615Z,15.89
2018-06-12T00:26:20.416Z,15.88
2018-06-12T00:28:49.131Z,15.88
2018-06-12T00:31:17.665Z,15.84
2018-06-12T00:33:48.014Z,15.83
2018-06-12T00:36:16.927Z,15.78
2018-06-12T00:38:45.401Z,15.75
2018-06-12T00:41:14.296Z,15.72
2018-06-12T00:43:43.290Z,15.69
2018-06-12T00:46:11.986Z,15.66
2018-06-12T00:48:40.645Z,15.57
2018-06-12T00:51:09.139Z,15.50
2018-06-12T00:53:37.562Z,15.44
2018-06-12T00:56:06.641Z,15.33
2018-06-12T00:58:35.137Z,15.30
2018-06-12T01:01:03.654Z,15.24
2018-06-12T01:03:32.195Z,15.20
2018-06-12T01:06:00.785Z,15.12
2018-06-12T01:08:29.221Z,15.05
2018-06-12T01:10:58.293Z,14.97
2018-06-12T01:13:27.206Z,14.92
2018-06-12T01:15:55.655Z,14.86
2018-06-12T01:18:24.553Z,14.79
2018-06-12T01:20:53.263Z,14.76
2018-06-12T01:23:21.697Z,14.74
2018-06-12T01:25:50.485Z,14.73
2018-06-12T01:28:18.970Z,14.70
2018-06-12T01:30:47.417Z,14.66
2018-06-12T01:33:16.149Z,14.61
2018-06-12T01:35:44.630Z,14.58
2018-06-12T01:38:13.079Z,14.55
2018-06-12T01:40:41.645Z,14.53
2018-06-12T01:43:10.249Z,14.52
2018-06-12T01:45:38.701Z,14.51
2018-06-12T01:48:07.547Z,14.53
2018-06-12T01:50:36.286Z,14.52
2018-06-12T01:53:04.728Z,14.50
2018-06-12T01:55:33.701Z,14.49
2018-06-12T01:58:02.307Z,14.49
2018-06-12T02:00:37.110Z,14.49
2018-06-12T02:03:05.678Z,14.48
2018-06-12T02:05:34.086Z,14.46
2018-06-12T02:08:02.553Z,14.43
2018-06-12T02:10:31.271Z,14.43
2018-06-12T02:12:59.669Z,14.41
2018-06-12T02:15:28.365Z,14.42
2018-06-12T02:17:57.265Z,14.44
2018-06-12T02:20:25.669Z,14.49
2018-06-12T02:22:56.241Z,14.52
2018-06-12T02:25:25.158Z,14.53
2018-06-12T02:27:53.561Z,14.49
2018-06-12T02:30:22.145Z,14.48
2018-06-12T02:32:50.645Z,14.47
2018-06-12T02:35:19.629Z,14.44
2018-06-12T02:37:48.454Z,14.40
2018-06-12T02:40:17.065Z,14.38
2018-06-12T02:42:45.461Z,13.28
2018-06-12T02:45:14.242Z,14.37
2018-06-12T02:47:43.086Z,14.38
2018-06-12T02:50:11.498Z,14.40
2018-06-12T02:52:40.237Z,14.40
2018-06-12T02:55:09.078Z,14.36
2018-06-12T02:57:37.504Z,14.35
2018-06-12T03:00:06.076Z,14.33
2018-06-12T03:02:35.134Z,14.33
2018-06-12T03:05:03.541Z,14.35
2018-06-12T03:07:32.709Z,14.37
2018-06-12T03:10:01.868Z,14.38
2018-06-12T03:12:30.274Z,14.39
2018-06-12T03:14:59.245Z,14.40
2018-06-12T03:17:27.858Z,14.44
2018-06-12T03:19:56.253Z,14.48
2018-06-12T03:22:25.392Z,14.52
2018-06-12T03:24:53.881Z,14.50
2018-06-12T03:27:22.309Z,14.48
2018-06-12T03:29:51.146Z,14.43
2018-06-12T03:32:19.703Z,14.42
2018-06-12T03:34:48.096Z,14.42
2018-06-12T03:37:16.722Z,14.41
2018-06-12T03:39:45.478Z,14.40
2018-06-12T03:42:14.025Z,14.35
2018-06-12T03:44:42.658Z,14.34
2018-06-12T03:47:11.469Z,14.34
2018-06-12T03:49:39.957Z,14.33
2018-06-12T03:52:08.515Z,14.31
2018-06-12T03:54:37.229Z,14.31
2018-06-12T03:57:06.053Z,14.34
2018-06-12T03:59:34.765Z,14.43
2018-06-12T04:02:03.354Z,14.53
2018-06-12T04:04:32.433Z,14.58
2018-06-12T04:07:00.885Z,14.60
2018-06-12T04:09:29.382Z,14.63
2018-06-12T04:11:58.261Z,14.68
2018-06-12T04:14:26.724Z,14.71
2018-06-12T04:16:55.301Z,14.73
2018-06-12T04:19:23.792Z,14.76
2018-06-12T04:21:52.689Z,14.79
2018-06-12T04:24:21.213Z,14.82
2018-06-12T04:26:49.621Z,15.03
2018-06-12T04:29:18.306Z,15.07
2018-06-12T04:31:47.198Z,15.08
2018-06-12T04:34:15.608Z,15.17
2018-06-12T04:36:44.047Z,15.26
2018-06-12T04:39:13.007Z,15.33
2018-06-12T04:41:41.421Z,15.34
2018-06-12T04:44:10.197Z,15.37
2018-06-12T04:46:39.053Z,15.41
2018-06-12T04:49:07.701Z,15.46
2018-06-12T04:51:36.323Z,15.55
2018-06-12T04:54:05.665Z,15.58
2018-06-12T04:56:34.089Z,15.66
2018-06-12T04:59:02.588Z,15.69
2018-06-12T05:01:31.232Z,15.79
2018-06-12T05:03:59.641Z,15.95
2018-06-12T05:06:28.906Z,16.04
2018-06-12T05:08:57.785Z,16.13
2018-06-12T05:11:26.190Z,16.09
2018-06-12T05:13:54.784Z,16.04
2018-06-12T05:16:23.838Z,15.98
2018-06-12T05:18:52.250Z,15.89
2018-06-12T05:21:21.069Z,15.83
2018-06-12T05:23:49.733Z,15.75
2018-06-12T05:26:18.150Z,15.75
2018-06-12T05:28:47.149Z,15.69
2018-06-12T05:31:16.257Z,15.67
2018-06-12T05:33:44.670Z,15.71
2018-06-12T05:36:13.401Z,15.67
2018-06-12T05:38:41.983Z,15.69
2018-06-12T05:41:10.444Z,15.72
2018-06-12T05:43:39.136Z,15.76
2018-06-12T05:46:07.814Z,15.82
2018-06-12T05:48:36.229Z,15.86
2018-06-12T05:51:04.879Z,15.83
2018-06-12T05:53:33.385Z,15.85
2018-06-12T05:56:01.802Z,15.87
2018-06-12T05:58:30.356Z,15.93
2018-06-12T06:00:59.314Z,15.95
2018-06-12T06:03:27.864Z,15.90
2018-06-12T06:05:56.494Z,15.85
2018-06-12T06:08:24.994Z,15.85
2018-06-12T06:10:53.452Z,15.89
2018-06-12T06:13:22.194Z,15.98
2018-06-12T06:15:50.776Z,15.97
2018-06-12T06:18:19.209Z,16.00
2018-06-12T06:20:47.917Z,16.03
2018-06-12T06:23:16.817Z,16.06
2018-06-12T06:25:45.256Z,16.18
2018-06-12T06:28:14.470Z,16.30
2018-06-12T06:30:43.032Z,16.36
2018-06-12T06:33:11.761Z,16.43
2018-06-12T06:35:40.273Z,16.46
2018-06-12T06:38:09.285Z,16.58
2018-06-12T06:40:38.083Z,16.63
2018-06-12T06:43:06.689Z,16.67
2018-06-12T06:45:35.343Z,16.67
2018-06-12T06:48:03.829Z,16.67
2018-06-12T06:50:32.477Z,16.71
2018-06-12T06:53:01.633Z,16.81
2018-06-12T06:55:30.629Z,16.85
2018-06-12T06:57:59.124Z,16.83
2018-06-12T07:00:27.761Z,16.91
2018-06-12T07:02:56.205Z,17.00
2018-06-12T07:05:24.824Z,17.14
2018-06-12T07:07:53.613Z,17.22
2018-06-12T07:10:22.097Z,17.27
2018-06-12T07:12:50.621Z,17.39
2018-06-12T07:15:19.154Z,17.49
2018-06-12T07:17:47.615Z,17.62
2018-06-12T07:20:27.933Z,17.77
2018-06-12T07:22:56.457Z,18.05
2018-06-12T07:25:24.870Z,18.24
2018-06-12T07:27:53.986Z,18.31
2018-06-12T07:30:22.508Z,18.36
2018-06-12T07:32:50.925Z,18.40
2018-06-12T07:35:19.800Z,18.52
2018-06-12T07:37:48.267Z,18.72
2018-06-12T07:40:16.662Z,18.98
2018-06-12T07:42:46.102Z,19.24
2018-06-12T07:45:14.526Z,19.56
2018-06-12T07:47:42.939Z,19.78
2018-06-12T07:50:11.846Z,19.93
2018-06-12T07:52:40.270Z,20.26
2018-06-12T07:55:08.778Z,20.55
2018-06-12T07:57:38.544Z,20.72
2018-06-12T08:00:07.094Z,20.87
2018-06-12T08:02:35.543Z,21.32
2018-06-12T08:05:04.887Z,21.94
2018-06-12T08:07:34.289Z,22.51
2018-06-12T08:10:02.701Z,23.07
2018-06-12T08:12:32.165Z,23.25
2018-06-12T08:15:00.841Z,23.20
2018-06-12T08:17:29.398Z,23.32
2018-06-12T08:19:59.208Z,23.64
2018-06-12T08:22:27.736Z,24.02
2018-06-12T08:24:56.151Z,24.37
2018-06-12T08:27:24.951Z,24.67
2018-06-12T08:29:53.553Z,24.94
2018-06-12T08:32:21.943Z,24.96
2018-06-12T08:34:50.981Z,25.24
2018-06-12T08:37:19.514Z,25.44
2018-06-12T08:39:47.992Z,25.43
2018-06-12T08:42:17.052Z,25.34
2018-06-12T08:44:45.761Z,25.45
2018-06-12T08:47:14.187Z,25.60
2018-06-12T08:49:43.125Z,25.72
2018-06-12T08:52:11.891Z,25.98
2018-06-12T08:54:40.296Z,26.23
2018-06-12T08:57:09.431Z,26.37
2018-06-12T08:59:38.262Z,26.50
2018-06-12T09:02:06.937Z,26.74
2018-06-12T09:04:35.581Z,26.96
2018-06-12T09:07:04.085Z,27.14
2018-06-12T09:09:32.517Z,27.17
2018-06-12T09:12:01.033Z,27.12
2018-06-12T09:14:29.534Z,27.02
2018-06-12T09:16:57.949Z,26.85
2018-06-12T09:19:26.477Z,27.00
2018-06-12T09:21:54.980Z,27.18
2018-06-12T09:24:23.401Z,27.09
2018-06-12T09:26:51.942Z,27.27
2018-06-12T09:29:20.645Z,27.40
2018-06-12T09:31:49.063Z,27.58
2018-06-12T09:34:17.557Z,27.61
2018-06-12T09:36:45.962Z,27.74
2018-06-12T09:39:14.437Z,27.94
2018-06-12T09:41:42.997Z,27.95
2018-06-12T09:44:11.458Z,28.03
2018-06-12T09:46:39.866Z,28.05
2018-06-12T09:49:08.829Z,28.05
2018-06-12T09:51:37.277Z,28.25
2018-06-12T09:54:05.929Z,28.35
2018-06-12T09:56:34.681Z,28.40
2018-06-12T09:59:03.094Z,28.07
2018-06-12T10:01:31.707Z,27.52
2018-06-12T10:04:00.276Z,27.01
2018-06-12T10:06:28.774Z,26.64
2018-06-12T10:08:57.235Z,26.58
2018-06-12T10:11:25.843Z,26.38
2018-06-12T10:13:55.249Z,26.56
2018-06-12T10:16:24.841Z,26.83
2018-06-12T10:18:53.388Z,27.23
2018-06-12T10:21:21.791Z,27.49
2018-06-12T10:23:50.194Z,27.61
2018-06-12T10:26:18.818Z,27.78
2018-06-12T10:28:47.323Z,27.87
2018-06-12T10:31:15.863Z,28.06
2018-06-12T10:33:44.545Z,28.11
2018-06-12T10:36:13.084Z,28.11
2018-06-12T10:38:41.630Z,28.10
2018-06-12T10:41:10.090Z,27.95
2018-06-12T10:43:38.593Z,28.06
2018-06-12T10:46:07.105Z,28.34
2018-06-12T10:48:36.055Z,28.40
2018-06-12T10:51:04.507Z,28.43
2018-06-12T10:53:32.913Z,28.40
2018-06-12T10:56:01.634Z,28.63
2018-06-12T10:58:30.070Z,28.83
2018-06-12T11:00:58.601Z,28.97
2018-06-12T11:03:27.178Z,29.19
2018-06-12T11:05:55.668Z,29.35
2018-06-12T11:08:24.237Z,29.41
2018-06-12T11:10:53.402Z,29.28
2018-06-12T11:13:21.841Z,29.26
2018-06-12T11:15:50.261Z,29.07
2018-06-12T11:18:19.213Z,28.97
2018-06-12T11:20:47.684Z,29.01
2018-06-12T11:23:16.081Z,28.98
2018-06-12T11:25:45.385Z,28.93
2018-06-12T11:28:13.805Z,29.09
2018-06-12T11:30:42.314Z,29.20
2018-06-12T11:33:11.346Z,29.09
2018-06-12T11:35:39.806Z,28.88
2018-06-12T11:38:08.229Z,28.95
2018-06-12T11:40:36.985Z,28.90
2018-06-12T11:43:05.488Z,28.78
2018-06-12T11:45:33.898Z,28.81
2018-06-12T11:48:02.631Z,29.03
2018-06-12T11:50:31.393Z,29.03
2018-06-12T11:52:59.865Z,28.87
2018-06-12T11:55:28.689Z,28.94
2018-06-12T11:57:57.351Z,29.00
2018-06-12T12:00:25.783Z,28.81
2018-06-12T12:02:54.626Z,28.78
2018-06-12T12:05:23.134Z,28.84
2018-06-12T12:07:51.553Z,28.88
2018-06-12T12:10:20.429Z,29.01
2018-06-12T12:12:49.532Z,29.22
2018-06-12T12:15:17.943Z,29.46
2018-06-12T12:17:46.393Z,29.59
2018-06-12T12:20:14.873Z,29.59
2018-06-12T12:22:43.373Z,29.72
2018-06-12T12:25:11.846Z,29.85
2018-06-12T12:27:40.481Z,29.81
2018-06-12T12:30:08.898Z,30.30
2018-06-12T12:32:37.365Z,30.59
2018-06-12T12:35:05.777Z,30.50
2018-06-12T12:37:34.266Z,30.20
2018-06-12T12:40:02.881Z,30.15
2018-06-12T12:42:31.721Z,29.60
2018-06-12T12:45:16.747Z,29.19
2018-06-12T12:47:45.349Z,28.99
2018-06-12T12:50:15.082Z,29.07
2018-06-12T12:52:43.515Z,29.08
2018-06-12T12:55:12.461Z,29.01
2018-06-12T12:57:40.914Z,29.32
2018-06-12T13:00:09.368Z,29.22
2018-06-12T13:02:38.021Z,29.01
2018-06-12T13:05:06.781Z,28.94
2018-06-12T13:07:35.398Z,28.73
2018-06-12T13:10:04.105Z,28.78
2018-06-12T13:12:34.507Z,29.29
2018-06-12T13:15:02.977Z,30.15
2018-06-12T13:17:31.721Z,30.47
2018-06-12T13:20:00.161Z,30.74
2018-06-12T13:22:28.649Z,31.12
2018-06-12T13:24:57.613Z,31.25
2018-06-12T13:27:26.151Z,31.15
2018-06-12T13:29:54.720Z,31.33
2018-06-12T13:32:23.208Z,31.76
2018-06-12T13:34:51.617Z,32.13
2018-06-12T13:37:20.087Z,32.19
2018-06-12T13:39:48.739Z,32.55
2018-06-12T13:42:17.227Z,33.03
2018-06-12T13:44:45.984Z,33.10
2018-06-12T13:47:14.661Z,33.08
2018-06-12T13:49:43.082Z,33.08
2018-06-12T13:52:11.523Z,33.28
2018-06-12T13:54:40.430Z,33.67
2018-06-12T13:57:08.853Z,33.98
2018-06-12T13:59:38.186Z,34.14
2018-06-12T14:02:06.769Z,33.79
2018-06-12T14:04:35.189Z,33.78
2018-06-12T14:07:03.962Z,33.99
2018-06-12T14:09:32.542Z,33.92
2018-06-12T14:12:01.127Z,33.95
2018-06-12T14:14:29.666Z,34.19
2018-06-12T14:16:58.158Z,34.50
2018-06-12T14:19:26.581Z,34.81
2018-06-12T14:21:55.337Z,34.76
2018-06-12T14:24:24.030Z,34.43
2018-06-12T14:26:52.448Z,34.92
2018-06-12T14:29:20.885Z,34.60
2018-06-12T14:31:49.307Z,34.53
2018-06-12T14:34:17.729Z,34.53
2018-06-12T14:36:48.949Z,34.74
2018-06-12T14:39:17.510Z,34.81
2018-06-12T14:41:45.972Z,35.38
2018-06-12T14:44:14.445Z,35.71
2018-06-12T14:46:43.358Z,35.84
2018-06-12T14:49:11.810Z,35.91
2018-06-12T14:51:40.213Z,35.63
2018-06-12T14:54:09.332Z,35.78
2018-06-12T14:56:37.786Z,35.55
2018-06-12T14:59:06.250Z,34.58
2018-06-12T15:01:35.117Z,33.60
2018-06-12T15:04:03.665Z,34.01
2018-06-12T15:06:32.109Z,34.42
2018-06-12T15:09:01.202Z,34.74
2018-06-12T15:11:29.654Z,35.23
2018-06-12T15:13:58.359Z,35.53
2018-06-12T15:16:27.018Z,35.54
2018-06-12T15:18:55.919Z,35.12
2018-06-12T15:21:24.320Z,33.51
2018-06-12T15:23:53.495Z,32.24
2018-06-12T15:26:21.999Z,31.73
2018-06-12T15:28:50.417Z,31.69
2018-06-12T15:31:18.966Z,32.45
2018-06-12T15:33:47.403Z,32.20
2018-06-12T15:36:15.897Z,32.36
2018-06-12T15:38:46.342Z,32.93
2018-06-12T15:41:15.341Z,32.83
2018-06-12T15:43:43.789Z,32.86
2018-06-12T15:46:12.541Z,32.27
2018-06-12T15:48:41.018Z,31.31
2018-06-12T15:51:09.455Z,31.37
2018-06-12T15:53:38.221Z,32.25
2018-06-12T15:56:06.820Z,32.22
2018-06-12T15:58:35.386Z,31.13
2018-06-12T16:01:04.368Z,30.12
2018-06-12T16:03:32.829Z,29.19
2018-06-12T16:06:01.265Z,28.19
2018-06-12T16:08:29.674Z,27.40
2018-06-12T16:10:58.238Z,26.84
2018-06-12T16:13:26.694Z,26.47
2018-06-12T16:15:55.139Z,27.18
2018-06-12T16:18:23.604Z,28.24
2018-06-12T16:20:52.201Z,29.26
2018-06-12T16:23:20.810Z,30.11
2018-06-12T16:25:49.246Z,30.67
2018-06-12T16:28:17.649Z,31.11
2018-06-12T16:30:46.069Z,31.25
2018-06-12T16:33:14.501Z,31.22
2018-06-12T16:35:42.905Z,31.13
2018-06-12T16:38:11.790Z,31.32
2018-06-12T16:40:40.225Z,31.40
2018-06-12T16:43:08.634Z,31.39
2018-06-12T16:45:37.209Z,31.30
2018-06-12T16:48:05.989Z,31.19
2018-06-12T16:50:34.393Z,31.34
2018-06-12T16:53:03.193Z,31.39
2018-06-12T16:55:31.661Z,31.25
2018-06-12T16:58:00.586Z,30.75
2018-06-12T17:00:29.142Z,30.13
2018-06-12T17:02:58.674Z,29.14
2018-06-12T17:05:27.099Z,28.24
2018-06-12T17:07:55.605Z,27.30
2018-06-12T17:10:25.302Z,26.62
2018-06-12T17:12:54.002Z,25.98
2018-06-12T17:15:22.738Z,25.44
2018-06-12T17:18:01.689Z,25.06
2018-06-12T17:20:30.974Z,24.81
2018-06-12T17:22:59.476Z,24.55
2018-06-12T17:25:28.005Z,24.06
2018-06-12T17:27:56.573Z,23.69
2018-06-12T17:30:24.991Z,23.41
2018-06-12T17:32:53.517Z,23.19
2018-06-12T17:35:22.217Z,22.95
2018-06-12T17:37:50.866Z,22.81
2018-06-12T17:40:19.326Z,22.60
2018-06-12T17:42:47.909Z,22.54
2018-06-12T17:45:16.333Z,22.30
2018-06-12T17:47:44.918Z,22.14
2018-06-12T17:50:13.337Z,21.94
2018-06-12T17:52:41.835Z,21.71
2018-06-12T17:55:10.641Z,21.59
2018-06-12T17:57:39.449Z,21.56
2018-06-12T18:00:07.956Z,21.39
2018-06-12T18:02:36.491Z,21.25
2018-06-12T18:05:05.337Z,21.13
2018-06-12T18:07:33.785Z,21.00
2018-06-12T18:10:02.393Z,20.91
2018-06-12T18:12:31.262Z,20.83
2018-06-12T18:15:00.337Z,20.72
2018-06-12T18:17:29.106Z,20.67
2018-06-12T18:20:01.641Z,20.62
2018-06-12T18:22:31.001Z,20.52
2018-06-12T18:24:59.781Z,20.43
2018-06-12T18:27:28.314Z,20.33
2018-06-12T18:29:56.998Z,20.21
2018-06-12T18:32:25.445Z,20.18
2018-06-12T18:34:54.368Z,20.14
2018-06-12T18:37:23.007Z,20.09
2018-06-12T18:39:51.497Z,20.08
2018-06-12T18:42:20.189Z,20.02
2018-06-12T18:44:48.950Z,19.96
2018-06-12T18:47:18.017Z,19.83
2018-06-12T18:49:46.522Z,19.74
2018-06-12T18:52:15.297Z,19.65
2018-06-12T18:54:43.723Z,19.65
2018-06-12T18:57:12.506Z,19.60
2018-06-12T18:59:41.086Z,19.55
2018-06-12T19:02:09.846Z,19.50
2018-06-12T19:04:38.265Z,19.41
2018-06-12T19:07:06.965Z,19.33
2018-06-12T19:09:35.514Z,19.27
2018-06-12T19:12:03.942Z,19.21
2018-06-12T19:14:33.135Z,19.10
2018-06-12T19:17:02.309Z,19.01
2018-06-12T19:19:30.985Z,18.97
2018-06-12T19:21:59.735Z,18.91
2018-06-12T19:24:28.168Z,18.88
2018-06-12T19:26:56.586Z,18.83
2018-06-12T19:29:25.301Z,18.78
2018-06-12T19:31:53.770Z,18.73
2018-06-12T19:34:22.341Z,18.66
2018-06-12T19:36:50.859Z,18.58
2018-06-12T19:39:19.429Z,18.54
2018-06-12T19:41:48.026Z,18.48
2018-06-12T19:44:16.538Z,18.45
2018-06-12T19:46:44.974Z,18.44
2018-06-12T19:49:13.989Z,18.40
2018-06-12T19:51:42.457Z,18.36
2018-06-12T19:54:10.870Z,18.34
2018-06-12T19:56:39.821Z,18.28
2018-06-12T19:59:08.257Z,18.22
2018-06-12T20:01:36.686Z,18.13
2018-06-12T20:04:05.501Z,18.05
2018-06-12T20:06:33.968Z,17.97
2018-06-12T20:09:02.410Z,17.91
2018-06-12T20:11:30.981Z,17.79
2018-06-12T20:13:59.437Z,17.73
2018-06-12T20:16:28.009Z,17.71
2018-06-12T20:18:56.707Z,17.63
2018-06-12T20:21:25.290Z,17.55
2018-06-12T20:23:53.693Z,16.55
2018-06-12T20:26:22.177Z,17.35
2018-06-12T20:28:50.645Z,17.26
2018-06-12T20:31:19.070Z,17.18
2018-06-12T20:33:47.719Z,17.12
2018-06-12T20:36:16.171Z,17.10
2018-06-12T20:38:44.639Z,17.04
2018-06-12T20:41:13.301Z,16.95
2018-06-12T20:43:41.754Z,16.89
2018-06-12T20:46:10.797Z,16.85
2018-06-12T20:48:39.667Z,16.81
2018-06-12T20:51:08.257Z,16.77
2018-06-12T20:53:36.681Z,16.73
2018-06-12T20:56:05.324Z,16.72
2018-06-12T20:58:33.786Z,16.71
2018-06-12T21:01:02.242Z,16.68
2018-06-12T21:03:31.477Z,16.65
2018-06-12T21:06:00.113Z,16.62
2018-06-12T21:08:28.590Z,16.58
2018-06-12T21:10:57.225Z,16.53
2018-06-12T21:13:25.665Z,16.48
2018-06-12T21:15:54.182Z,16.45
2018-06-12T21:18:22.808Z,16.40
2018-06-12T21:20:51.273Z,16.35
2018-06-12T21:23:19.689Z,16.29
2018-06-12T21:25:48.269Z,16.21
2018-06-12T21:28:16.729Z,16.18
2018-06-12T21:30:45.145Z,16.16
2018-06-12T21:33:13.641Z,16.13
2018-06-12T21:35:42.067Z,16.02
2018-06-12T21:38:10.520Z,15.90
2018-06-12T21:40:39.049Z,15.80
2018-06-12T21:43:07.493Z,15.72
2018-06-12T21:45:35.913Z,15.63
2018-06-12T21:48:04.555Z,15.54
2018-06-12T21:50:32.999Z,15.49
2018-06-12T21:53:01.431Z,15.51
2018-06-12T21:55:29.922Z,15.50
2018-06-12T21:57:58.522Z,15.44
2018-06-12T22:00:39.797Z,15.43
2018-06-12T22:03:08.261Z,15.44
2018-06-12T22:05:36.676Z,15.42
2018-06-12T22:08:05.605Z,15.39
2018-06-12T22:10:34.029Z,15.26
2018-06-12T22:13:02.752Z,15.12
2018-06-12T22:15:31.429Z,15.05
2018-06-12T22:17:59.893Z,15.03
2018-06-12T22:20:28.545Z,14.98
2018-06-12T22:22:57.169Z,14.94
2018-06-12T22:25:25.633Z,14.90
2018-06-12T22:27:54.253Z,14.89
2018-06-12T22:30:22.829Z,14.89
2018-06-12T22:32:51.266Z,14.80
2018-06-12T22:35:20.576Z,14.71
2018-06-12T22:37:49.271Z,14.65
2018-06-12T22:40:17.735Z,14.60
2018-06-12T22:42:46.356Z,14.56
2018-06-12T22:45:15.349Z,14.52
2018-06-12T22:47:43.786Z,14.34
2018-06-12T22:50:12.640Z,14.50
2018-06-12T22:52:41.301Z,14.55
2018-06-12T22:55:09.766Z,14.52
2018-06-12T22:57:38.300Z,14.42
2018-06-12T23:00:06.843Z,14.34
2018-06-12T23:02:35.402Z,14.28
2018-06-12T23:05:04.005Z,14.24
2018-06-12T23:07:32.490Z,14.23
2018-06-12T23:10:01.512Z,14.21
2018-06-12T23:12:31.461Z,14.19
2018-06-12T23:15:00.095Z,14.19
2018-06-12T23:17:28.556Z,14.15
2018-06-12T23:22:05.117Z,14.01
2018-06-12T23:24:33.606Z,14.06
2018-06-12T23:27:02.203Z,14.03
2018-06-12T23:29:30.833Z,14.01
2018-06-12T23:31:59.389Z,13.98
2018-06-12T23:34:27.812Z,13.95
2018-06-12T23:36:56.577Z,13.93
2018-06-12T23:39:25.095Z,13.91
2018-06-12T23:41:53.470Z,13.87
2018-06-12T23:44:21.893Z,13.85
2018-06-12T23:46:50.345Z,13.81
2018-06-12T23:49:18.780Z,13.80
2018-06-12T23:51:47.630Z,13.82
2018-06-12T23:54:16.097Z,13.76
2018-06-12T23:56:44.533Z,13.67
2018-06-12T23:59:13.187Z,13.59
